Time;durP1;ratioP1;P1;durP2;ratioP2;P2;SDS_P1;SDS_P2;PMS_P1;PMS_P2;Temp;Humidity;BMP_temperature;BMP_pressure;BME280_temperature;BME280_humidity;BME280_pressure;Samples;Min_cycle;Max_cycle;Signal;HPM_P1;HPM_P2
2021/11/27 00:02:14;;;;;;;24.47;16.77;;;21.90;83.50;;;;;;1860329;76;21794;-80
2021/11/27 00:04:45;;;;;;;27.60;16.87;;;21.90;83.20;;;;;;1861883;76;21643;-80
2021/11/27 00:07:17;;;;;;;25.08;17.17;;;21.90;83.10;;;;;;1851089;76;21478;-80
2021/11/27 00:09:47;;;;;;;23.65;16.67;;;21.90;82.90;;;;;;1862444;76;21623;-80
2021/11/27 00:12:18;;;;;;;24.72;17.00;;;21.90;83.00;;;;;;1845454;76;21171;-81
2021/11/27 00:14:49;;;;;;;22.77;16.62;;;22.00;82.90;;;;;;1834290;77;21666;-81
2021/11/27 00:17:20;;;;;;;21.75;16.40;;;22.00;82.70;;;;;;1852283;76;21101;-81
2021/11/27 00:19:51;;;;;;;27.25;16.35;;;22.00;82.80;;;;;;1862394;76;21600;-81
2021/11/27 00:22:22;;;;;;;22.77;15.03;;;22.00;82.70;;;;;;1862456;76;21111;-81
2021/11/27 00:24:53;;;;;;;22.50;14.73;;;22.00;82.30;;;;;;1860027;76;21218;-82
2021/11/27 00:27:24;;;;;;;24.70;15.68;;;22.10;81.90;;;;;;1838049;76;21131;-82
2021/11/27 00:29:55;;;;;;;21.17;14.70;;;22.10;81.70;;;;;;1849222;76;21533;-81
2021/11/27 00:32:26;;;;;;;17.05;13.65;;;22.10;81.90;;;;;;1853134;76;21622;-82
2021/11/27 00:34:57;;;;;;;19.67;13.50;;;22.20;81.50;;;;;;1854616;76;21108;-81
2021/11/27 00:37:28;;;;;;;21.77;14.25;;;22.20;81.10;;;;;;1847492;76;21612;-82
2021/11/27 00:39:59;;;;;;;23.85;14.65;;;22.30;80.90;;;;;;1850876;76;21638;-81
2021/11/27 00:42:30;;;;;;;19.10;13.22;;;22.30;80.30;;;;;;1859323;76;21118;-81
2021/11/27 00:45:02;;;;;;;26.70;14.53;;;22.30;80.30;;;;;;1853474;76;21190;-82
2021/11/27 00:47:32;;;;;;;17.05;13.13;;;22.40;80.20;;;;;;1859749;75;21127;-81
2021/11/27 00:50:04;;;;;;;21.10;13.93;;;22.40;79.90;;;;;;1858649;76;21673;-83
2021/11/27 00:52:34;;;;;;;18.65;13.55;;;22.50;79.90;;;;;;1862372;75;21101;-82
2021/11/27 00:55:06;;;;;;;25.27;13.93;;;22.50;80.00;;;;;;1858217;76;21232;-82
2021/11/27 00:57:38;;;;;;;18.00;13.83;;;22.60;80.00;;;;;;1850868;76;21238;-82
2021/11/27 01:00:11;;;;;;;21.33;13.53;;;22.70;79.10;;;;;;1863024;75;21221;-82
2021/11/27 01:02:43;;;;;;;21.50;14.07;;;22.80;78.90;;;;;;1865407;75;21190;-80
2021/11/27 01:05:16;;;;;;;17.87;11.68;;;22.80;78.70;;;;;;1869280;75;21179;-81
2021/11/27 01:07:48;;;;;;;17.90;12.03;;;22.80;77.50;;;;;;1870786;75;21229;-89
2021/11/27 01:10:21;;;;;;;18.40;11.45;;;22.90;77.80;;;;;;1874687;75;21136;-82
2021/11/27 01:12:53;;;;;;;14.80;11.25;;;22.90;78.00;;;;;;1870041;75;21634;-83
2021/11/27 01:15:26;;;;;;;16.60;11.75;;;23.00;77.60;;;;;;1849817;76;21144;-83
2021/11/27 01:17:59;;;;;;;19.95;12.15;;;23.10;76.70;;;;;;1882469;75;21183;-83
2021/11/27 01:20:32;;;;;;;15.95;11.15;;;23.10;76.80;;;;;;1840840;76;21710;-83
2021/11/27 01:23:04;;;;;;;23.15;14.73;;;23.20;75.60;;;;;;1865655;75;21182;-83
2021/11/27 01:25:35;;;;;;;18.23;12.07;;;23.20;75.70;;;;;;1865520;75;21167;-83
2021/11/27 01:28:06;;;;;;;12.95;9.78;;;23.20;76.20;;;;;;1869153;75;21202;-82
2021/11/27 01:30:37;;;;;;;17.12;11.35;;;23.20;75.40;;;;;;1883307;75;21587;-83
2021/11/27 01:33:08;;;;;;;15.20;10.23;;;23.20;75.20;;;;;;1880259;75;21116;-82
2021/11/27 01:35:40;;;;;;;14.23;9.95;;;23.10;75.50;;;;;;1875983;75;21135;-82
2021/11/27 01:38:14;;;;;;;13.88;9.50;;;23.20;75.30;;;;;;1881558;75;21740;-82
2021/11/27 01:40:45;;;;;;;12.33;8.88;;;23.20;74.90;;;;;;1880724;75;21142;-82
2021/11/27 01:43:16;;;;;;;10.95;8.00;;;23.20;74.30;;;;;;1875739;75;21986;-81
2021/11/27 01:45:49;;;;;;;12.65;9.03;;;23.30;74.50;;;;;;1891922;75;21436;-82
2021/11/27 01:48:24;;;;;;;11.80;7.87;;;23.30;73.80;;;;;;1878569;75;21248;-81
2021/11/27 01:50:56;;;;;;;15.50;8.63;;;23.30;73.50;;;;;;1846224;76;21179;-82
2021/11/27 01:53:30;;;;;;;12.55;8.03;;;23.40;73.40;;;;;;1856490;75;21688;-83
2021/11/27 01:56:03;;;;;;;12.00;8.28;;;23.40;72.50;;;;;;1875349;75;21568;-83
2021/11/27 01:58:34;;;;;;;12.45;8.60;;;23.40;72.40;;;;;;1830442;77;21288;-81
2021/11/27 02:01:08;;;;;;;11.65;8.28;;;23.50;72.70;;;;;;1876627;75;21185;-81
2021/11/27 02:03:41;;;;;;;12.50;8.45;;;23.50;72.80;;;;;;1850602;77;21269;-82
2021/11/27 02:06:14;;;;;;;10.82;7.30;;;23.60;72.50;;;;;;1860511;76;21807;-82
2021/11/27 02:08:47;;;;;;;11.05;7.85;;;23.70;71.60;;;;;;1863372;76;21040;-82
2021/11/27 02:11:20;;;;;;;13.20;8.75;;;23.70;71.80;;;;;;1864955;76;21136;-83
2021/11/27 02:13:51;;;;;;;14.65;9.53;;;23.80;71.90;;;;;;1854427;77;21249;-82
2021/11/27 02:16:28;;;;;;;14.47;8.60;;;23.90;72.20;;;;;;1853521;77;21170;-81
2021/11/27 02:19:00;;;;;;;11.97;7.87;;;23.90;72.20;;;;;;1871883;75;21148;-83
2021/11/27 02:21:31;;;;;;;11.18;8.10;;;23.90;71.20;;;;;;1883864;75;21131;-82
2021/11/27 02:24:02;;;;;;;13.72;7.80;;;23.90;71.00;;;;;;1881083;75;21203;-81
2021/11/27 02:26:35;;;;;;;13.60;7.83;;;24.00;71.00;;;;;;1884332;75;21120;-83
2021/11/27 02:29:08;;;;;;;12.40;8.58;;;24.00;70.80;;;;;;1852321;77;21160;-82
2021/11/27 02:31:41;;;;;;;13.22;7.22;;;24.00;70.70;;;;;;1869706;76;21111;-82
2021/11/27 02:34:12;;;;;;;9.70;6.90;;;24.10;70.40;;;;;;1858019;76;21083;-83
2021/11/27 02:36:45;;;;;;;9.65;6.53;;;24.10;69.70;;;;;;1841810;77;21172;-83
2021/11/27 02:39:16;;;;;;;9.20;6.10;;;24.20;69.40;;;;;;1847672;77;21087;-84
2021/11/27 02:41:52;;;;;;;8.28;6.35;;;24.20;68.80;;;;;;1851043;77;21606;-84
2021/11/27 02:44:21;;;;;;;10.48;5.28;;;24.30;68.20;;;;;;1848795;77;21216;-83
2021/11/27 02:46:53;;;;;;;8.85;5.95;;;24.40;67.90;;;;;;1850271;77;21127;-83
2021/11/27 02:49:23;;;;;;;7.30;5.62;;;24.50;67.50;;;;;;1854712;76;21132;-83
2021/11/27 02:51:55;;;;;;;7.08;5.53;;;24.60;67.50;;;;;;1853668;77;21154;-82
2021/11/27 02:54:27;;;;;;;7.25;5.30;;;24.60;67.20;;;;;;1853165;77;21154;-82
2021/11/27 02:56:57;;;;;;;11.40;5.72;;;24.80;66.40;;;;;;1853518;75;21210;-83
2021/11/27 02:59:30;;;;;;;10.75;5.40;;;24.90;66.80;;;;;;1851555;77;21138;-82
2021/11/27 03:02:03;;;;;;;11.53;5.70;;;25.00;65.80;;;;;;1851032;77;21167;-83
2021/11/27 03:04:36;;;;;;;9.70;4.95;;;25.00;64.60;;;;;;1848842;77;21123;-83
2021/11/27 03:07:08;;;;;;;10.23;4.97;;;25.20;64.20;;;;;;1854055;77;21104;-84
2021/11/27 03:09:39;;;;;;;11.57;5.45;;;25.20;63.10;;;;;;1850280;77;21119;-84
2021/11/27 03:12:10;;;;;;;12.10;4.87;;;25.30;63.40;;;;;;1851920;77;21131;-85
2021/11/27 03:14:41;;;;;;;8.63;4.80;;;25.30;62.50;;;;;;1852305;77;21100;-84
2021/11/27 03:17:14;;;;;;;11.22;5.12;;;25.40;62.40;;;;;;1849911;77;21142;-84
2021/11/27 03:19:46;;;;;;;11.15;5.45;;;25.50;62.40;;;;;;1854428;77;21196;-84
2021/11/27 03:22:22;;;;;;;8.30;4.37;;;25.60;61.50;;;;;;1851115;76;21124;-84
2021/11/27 03:24:51;;;;;;;29.82;6.60;;;25.70;60.60;;;;;;1849433;77;21508;-84
2021/11/27 03:27:22;;;;;;;8.05;4.92;;;25.80;60.40;;;;;;1858632;77;21122;-84
2021/11/27 03:29:53;;;;;;;7.53;4.55;;;25.80;59.70;;;;;;1865540;76;21151;-84
2021/11/27 03:32:25;;;;;;;8.93;4.78;;;25.90;59.80;;;;;;1851014;77;21203;-84
2021/11/27 03:34:56;;;;;;;7.62;4.45;;;25.90;60.60;;;;;;1839141;77;21610;-85
2021/11/27 03:37:27;;;;;;;7.35;5.05;;;26.00;59.70;;;;;;1865667;77;21114;-84
2021/11/27 03:39:58;;;;;;;13.78;5.08;;;26.20;59.30;;;;;;1847928;77;21131;-85
2021/11/27 03:42:29;;;;;;;7.95;4.20;;;26.20;59.60;;;;;;1834986;78;21092;-84
2021/11/27 03:45:01;;;;;;;5.95;4.22;;;26.30;59.10;;;;;;1834962;78;21193;-84
2021/11/27 03:47:32;;;;;;;6.17;3.90;;;26.40;59.40;;;;;;1860856;77;21914;-83
2021/11/27 03:50:04;;;;;;;5.72;3.90;;;26.50;59.00;;;;;;1847611;77;21631;-83
2021/11/27 03:52:34;;;;;;;8.60;4.37;;;26.60;58.80;;;;;;1848349;77;21147;-83
2021/11/27 03:55:06;;;;;;;8.70;4.78;;;26.70;58.50;;;;;;1842707;77;21255;-83
2021/11/27 03:57:36;;;;;;;8.58;5.25;;;26.90;59.00;;;;;;1849393;77;21589;-83
2021/11/27 04:00:09;;;;;;;9.98;5.10;;;27.00;58.70;;;;;;1841810;77;21646;-83
2021/11/27 04:02:40;;;;;;;8.83;5.10;;;27.20;58.10;;;;;;1846887;75;21650;-83
2021/11/27 04:05:11;;;;;;;7.20;3.98;;;27.30;56.70;;;;;;1853649;77;21095;-84
2021/11/27 04:07:42;;;;;;;11.53;4.72;;;27.40;57.00;;;;;;1848980;77;21174;-82
2021/11/27 04:10:15;;;;;;;82.25;11.33;;;27.40;56.90;;;;;;1847204;77;21643;-81
2021/11/27 04:12:45;;;;;;;13.55;4.75;;;27.50;56.50;;;;;;1846798;77;21032;-81
2021/11/27 04:15:17;;;;;;;8.58;5.12;;;27.60;56.30;;;;;;1851003;77;21174;-82
2021/11/27 04:17:49;;;;;;;7.33;5.35;;;27.60;56.40;;;;;;1855711;76;21169;-81
2021/11/27 04:20:20;;;;;;;10.72;5.35;;;27.70;56.70;;;;;;1884707;75;21554;-81
2021/11/27 04:22:51;;;;;;;13.13;5.45;;;27.80;56.10;;;;;;1851470;77;21124;-83
2021/11/27 04:25:22;;;;;;;7.15;4.30;;;27.80;56.10;;;;;;1883470;75;21654;-81
2021/11/27 04:27:54;;;;;;;10.15;5.03;;;27.90;56.10;;;;;;1842534;77;21665;-82
2021/11/27 04:30:27;;;;;;;10.15;4.65;;;28.00;56.00;;;;;;1881829;75;21104;-70
2021/11/27 04:32:58;;;;;;;7.65;4.95;;;28.10;56.00;;;;;;1863728;75;21123;-71
2021/11/27 04:35:30;;;;;;;8.40;5.12;;;28.10;55.60;;;;;;1826895;76;21082;-73
2021/11/27 04:38:03;;;;;;;8.35;5.50;;;28.20;55.20;;;;;;1831991;78;21232;-71
2021/11/27 04:40:34;;;;;;;7.33;5.28;;;28.30;55.40;;;;;;1861295;77;21139;-72
2021/11/27 04:43:05;;;;;;;9.83;5.17;;;28.30;55.10;;;;;;1863711;76;21060;-72
2021/11/27 04:45:36;;;;;;;7.80;5.10;;;28.40;55.00;;;;;;1861244;76;21111;-72
2021/11/27 04:48:07;;;;;;;9.15;5.25;;;28.40;54.80;;;;;;1863931;76;21189;-72
2021/11/27 04:50:39;;;;;;;8.05;5.53;;;28.50;54.70;;;;;;1859388;76;21122;-72
2021/11/27 04:53:10;;;;;;;11.20;5.65;;;28.60;54.90;;;;;;1863925;76;21517;-71
2021/11/27 04:55:41;;;;;;;8.58;5.33;;;28.70;54.80;;;;;;1852612;76;21205;-71
2021/11/27 04:58:13;;;;;;;9.98;6.12;;;28.70;54.60;;;;;;1852317;76;21555;-71
2021/11/27 05:00:46;;;;;;;8.83;5.28;;;28.80;54.50;;;;;;1854367;76;21143;-71
2021/11/27 05:03:17;;;;;;;8.15;5.78;;;28.80;54.40;;;;;;1851706;77;21196;-71
2021/11/27 05:05:49;;;;;;;6.95;5.40;;;28.90;55.30;;;;;;1857895;75;21127;-73
2021/11/27 05:08:19;;;;;;;7.58;5.70;;;29.00;54.60;;;;;;1855655;75;21618;-71
2021/11/27 05:10:50;;;;;;;8.25;5.40;;;29.10;54.30;;;;;;1855953;75;21170;-72
2021/11/27 05:13:21;;;;;;;9.65;5.62;;;29.10;53.80;;;;;;1856692;75;21205;-71
2021/11/27 05:15:52;;;;;;;7.97;5.60;;;29.10;53.40;;;;;;1856221;75;21574;-72
2021/11/27 05:18:23;;;;;;;10.23;6.03;;;29.10;54.20;;;;;;1863309;75;21166;-72
2021/11/27 05:20:55;;;;;;;6.58;5.65;;;29.20;54.30;;;;;;1860297;75;21298;-71
2021/11/27 05:23:27;;;;;;;8.03;5.42;;;29.20;53.50;;;;;;1860073;75;21264;-71
2021/11/27 05:25:58;;;;;;;6.53;5.22;;;29.20;53.60;;;;;;1859246;75;21123;-71
2021/11/27 05:28:28;;;;;;;7.97;5.78;;;29.30;53.10;;;;;;1884233;76;21580;-71
2021/11/27 05:30:59;;;;;;;8.95;5.55;;;29.30;53.20;;;;;;1844113;76;21076;-71
2021/11/27 05:36:03;;;;;;;6.95;5.62;;;29.30;53.10;;;;;;1827908;78;21174;-71
2021/11/27 05:38:34;;;;;;;8.60;5.95;;;29.20;53.40;;;;;;1837723;78;21147;-72
2021/11/27 05:41:06;;;;;;;16.93;6.60;;;29.30;53.10;;;;;;1833571;78;21147;-71
2021/11/27 05:43:38;;;;;;;10.43;5.80;;;29.30;53.70;;;;;;1831602;78;21717;-72
2021/11/27 05:46:09;;;;;;;8.75;5.92;;;29.30;52.70;;;;;;1832575;78;21151;-71
2021/11/27 05:48:40;;;;;;;9.13;6.10;;;29.30;52.70;;;;;;1813277;78;21123;-71
2021/11/27 05:51:11;;;;;;;12.25;6.05;;;29.40;52.70;;;;;;1850889;76;21579;-72
2021/11/27 05:53:42;;;;;;;10.05;5.75;;;29.50;52.90;;;;;;1842366;76;21120;-72
2021/11/27 05:56:13;;;;;;;10.05;5.70;;;29.50;52.50;;;;;;1852534;76;21732;-73
2021/11/27 05:58:44;;;;;;;8.73;5.83;;;29.50;52.60;;;;;;1853287;76;21123;-71
2021/11/27 06:01:14;;;;;;;8.95;5.28;;;29.50;52.70;;;;;;1850940;76;21086;-71
2021/11/27 06:03:46;;;;;;;6.15;4.97;;;29.60;52.60;;;;;;1844686;76;21165;-71
2021/11/27 06:06:17;;;;;;;9.35;5.47;;;29.50;52.30;;;;;;1847308;76;21592;-71
2021/11/27 06:08:48;;;;;;;9.23;5.20;;;29.50;52.20;;;;;;1867665;76;21139;-72
2021/11/27 06:11:18;;;;;;;6.25;4.97;;;29.60;52.40;;;;;;1831401;77;21133;-71
2021/11/27 06:13:49;;;;;;;7.67;5.62;;;29.50;52.40;;;;;;1846139;76;21196;-71
2021/11/27 06:16:20;;;;;;;9.38;6.37;;;29.50;52.40;;;;;;1849295;76;21749;-71
2021/11/27 06:18:51;;;;;;;7.35;5.58;;;29.50;52.60;;;;;;1849160;76;21103;-71
2021/11/27 06:21:22;;;;;;;10.05;5.97;;;29.50;52.80;;;;;;1825857;77;21119;-71
2021/11/27 06:23:55;;;;;;;8.63;5.95;;;29.50;52.90;;;;;;1859869;75;21643;-71
2021/11/27 06:26:26;;;;;;;8.73;5.92;;;29.60;52.40;;;;;;1828785;77;21584;-71
2021/11/27 06:28:57;;;;;;;7.30;5.25;;;29.60;51.80;;;;;;1815972;77;21642;-71
2021/11/27 06:31:28;;;;;;;9.98;5.80;;;29.60;51.50;;;;;;1861619;77;21179;-71
2021/11/27 06:34:00;;;;;;;6.80;5.55;;;29.60;52.30;;;;;;1817201;77;21677;-71
2021/11/27 06:36:33;;;;;;;14.05;6.12;;;29.60;52.60;;;;;;1863786;77;21646;-71
2021/11/27 06:39:05;;;;;;;7.62;6.00;;;29.60;52.20;;;;;;1864600;77;21592;-71
2021/11/27 06:41:36;;;;;;;8.25;6.12;;;29.60;52.60;;;;;;1861037;76;21117;-71
2021/11/27 06:44:09;;;;;;;9.33;6.50;;;29.60;52.50;;;;;;1809694;77;21186;-71
2021/11/27 06:46:40;;;;;;;9.85;6.67;;;29.60;52.40;;;;;;1813436;77;21481;-70
2021/11/27 06:49:11;;;;;;;7.00;5.40;;;29.60;52.20;;;;;;1810710;78;21150;-71
2021/11/27 06:51:42;;;;;;;9.53;5.97;;;29.60;52.20;;;;;;1845026;77;21615;-71
2021/11/27 06:54:13;;;;;;;8.53;5.83;;;29.60;52.30;;;;;;1862939;77;21147;-70
2021/11/27 06:56:44;;;;;;;8.10;5.70;;;29.60;53.00;;;;;;1856081;75;21203;-70
2021/11/27 06:59:15;;;;;;;8.98;5.58;;;29.60;52.10;;;;;;1860265;77;21461;-70
2021/11/27 07:01:46;;;;;;;9.20;6.70;;;29.60;52.20;;;;;;1862165;75;21156;-70
2021/11/27 07:04:18;;;;;;;11.50;6.60;;;29.60;52.70;;;;;;1862857;75;21643;-71
2021/11/27 07:06:49;;;;;;;10.98;6.65;;;29.60;52.60;;;;;;1865693;76;21103;-70
2021/11/27 07:09:21;;;;;;;12.25;7.42;;;29.60;52.80;;;;;;1864886;77;21241;-70
2021/11/27 07:11:52;;;;;;;9.85;6.92;;;29.60;53.20;;;;;;1864517;77;21147;-70
2021/11/27 07:14:23;;;;;;;14.53;7.37;;;29.70;51.90;;;;;;1831511;77;21586;-71
2021/11/27 07:16:54;;;;;;;18.23;8.93;;;29.70;52.10;;;;;;1855649;76;21155;-70
2021/11/27 07:22:15;;;;;;;7.67;5.75;;;29.80;52.20;;;;;;1795015;79;21755;-70
2021/11/27 07:24:46;;;;;;;8.85;6.12;;;29.80;51.80;;;;;;1847945;77;21285;-70
2021/11/27 07:27:17;;;;;;;8.80;5.75;;;29.70;52.10;;;;;;1837832;77;21134;-70
2021/11/27 07:29:48;;;;;;;7.45;5.58;;;29.70;52.00;;;;;;1845894;77;21171;-70
2021/11/27 07:32:20;;;;;;;12.43;6.33;;;29.80;52.40;;;;;;1834678;76;21130;-71
2021/11/27 07:34:51;;;;;;;12.43;5.58;;;29.70;52.00;;;;;;1833745;77;21541;-70
2021/11/27 07:37:22;;;;;;;8.50;6.55;;;29.70;52.10;;;;;;1838505;76;21602;-70
2021/11/27 07:39:54;;;;;;;9.10;5.78;;;29.70;51.80;;;;;;1825404;77;21212;-70
2021/11/27 07:42:25;;;;;;;9.30;5.28;;;29.70;52.30;;;;;;1843808;76;21175;-70
2021/11/27 07:44:55;;;;;;;7.30;5.20;;;29.60;52.10;;;;;;1818983;79;21194;-71
2021/11/27 07:47:26;;;;;;;7.05;5.20;;;29.60;52.20;;;;;;1829237;77;21222;-70
2021/11/27 07:49:59;;;;;;;8.00;5.47;;;29.60;51.90;;;;;;1840755;76;21126;-71
2021/11/27 07:52:29;;;;;;;6.30;4.87;;;29.60;52.10;;;;;;1832949;76;21338;-70
2021/11/27 07:55:00;;;;;;;7.90;5.65;;;29.60;52.10;;;;;;1829737;76;21178;-71
2021/11/27 07:57:31;;;;;;;10.60;5.87;;;29.60;52.50;;;;;;1821187;77;21222;-70
2021/11/27 08:00:02;;;;;;;9.23;5.78;;;29.60;51.90;;;;;;1866880;75;21671;-70
2021/11/27 08:02:34;;;;;;;10.78;6.10;;;29.60;52.20;;;;;;1882991;75;21932;-70
2021/11/27 08:05:06;;;;;;;7.58;5.67;;;29.60;52.50;;;;;;1862215;74;21157;-70
2021/11/27 08:07:40;;;;;;;9.08;5.78;;;29.60;52.80;;;;;;1855775;76;21683;-71
2021/11/27 08:10:13;;;;;;;10.30;6.28;;;29.60;52.30;;;;;;1892614;75;21163;-70
2021/11/27 08:12:44;;;;;;;8.03;5.83;;;29.50;52.40;;;;;;1881323;75;21147;-71
2021/11/27 08:15:15;;;;;;;7.72;6.08;;;29.40;52.30;;;;;;1877714;76;21211;-69
2021/11/27 08:17:45;;;;;;;11.53;6.40;;;29.40;52.40;;;;;;1866436;75;21147;-69
2021/11/27 08:20:16;;;;;;;10.23;6.37;;;29.40;52.20;;;;;;1859525;76;21077;-70
2021/11/27 08:22:47;;;;;;;8.98;6.50;;;29.40;52.50;;;;;;1894117;75;21657;-71
2021/11/27 08:25:18;;;;;;;7.70;6.12;;;29.40;52.50;;;;;;1892714;75;21270;-70
2021/11/27 08:27:49;;;;;;;9.48;7.40;;;29.30;52.30;;;;;;1897051;75;21445;-71
2021/11/27 08:30:20;;;;;;;10.95;6.55;;;29.40;52.40;;;;;;1911907;75;21134;-70
2021/11/27 08:32:52;;;;;;;7.67;5.40;;;29.40;52.30;;;;;;1898177;75;21091;-70
2021/11/27 08:35:23;;;;;;;10.75;6.80;;;29.30;52.20;;;;;;1901966;75;21142;-71
2021/11/27 08:37:54;;;;;;;9.50;6.62;;;29.30;52.50;;;;;;1894214;75;21143;-70
2021/11/27 08:40:25;;;;;;;9.33;6.67;;;29.30;52.00;;;;;;1904380;75;21197;-70
2021/11/27 08:42:56;;;;;;;9.80;6.97;;;29.30;52.20;;;;;;1897340;74;21103;-72
2021/11/27 08:45:28;;;;;;;8.35;6.90;;;29.30;52.60;;;;;;1857413;77;21584;-71
2021/11/27 08:48:01;;;;;;;8.40;6.55;;;29.20;52.60;;;;;;1861363;75;21095;-71
2021/11/27 08:50:32;;;;;;;11.40;9.08;;;29.20;52.80;;;;;;1890759;75;21601;-70
2021/11/27 08:53:05;;;;;;;10.68;7.65;;;29.20;52.60;;;;;;1860502;76;21774;-71
2021/11/27 08:55:36;;;;;;;13.18;7.28;;;29.20;52.10;;;;;;1858324;77;21126;-70
2021/11/27 08:58:07;;;;;;;7.65;5.87;;;29.20;52.10;;;;;;1865881;75;21127;-71
2021/11/27 09:00:40;;;;;;;8.10;6.45;;;29.20;52.50;;;;;;1878402;76;21187;-70
2021/11/27 09:03:11;;;;;;;8.55;6.95;;;29.10;52.10;;;;;;1874094;76;21097;-70
2021/11/27 09:05:42;;;;;;;11.25;7.20;;;29.10;52.20;;;;;;1862010;75;22670;-70
2021/11/27 09:08:13;;;;;;;9.73;6.85;;;29.10;52.40;;;;;;1872224;76;21584;-69
2021/11/27 09:10:44;;;;;;;8.88;7.03;;;29.10;52.60;;;;;;1844482;77;21294;-70
2021/11/27 09:13:15;;;;;;;9.63;6.62;;;29.10;52.70;;;;;;1864906;76;21120;-70
2021/11/27 09:15:46;;;;;;;13.53;7.15;;;29.10;53.00;;;;;;1861523;75;21111;-70
2021/11/27 09:18:17;;;;;;;13.32;7.17;;;29.00;52.90;;;;;;1867894;74;21701;-70
2021/11/27 09:20:48;;;;;;;13.90;7.50;;;29.00;53.70;;;;;;1872011;75;21151;-70
2021/11/27 09:23:18;;;;;;;12.90;10.35;;;29.00;53.60;;;;;;1895826;74;21537;-70
2021/11/27 09:25:49;;;;;;;9.13;7.45;;;29.00;53.50;;;;;;1895993;74;21140;-70
2021/11/27 09:28:20;;;;;;;9.95;7.87;;;29.00;53.50;;;;;;1929576;74;21624;-70
2021/11/27 09:30:53;;;;;;;12.28;8.48;;;28.90;53.80;;;;;;1919173;74;21065;-70
2021/11/27 09:33:24;;;;;;;11.57;8.28;;;28.90;54.10;;;;;;1873149;76;21110;-70
2021/11/27 09:38:27;;;;;;;14.58;8.20;;;28.80;54.10;;;;;;1875771;76;21120;-70
2021/11/27 09:41:00;;;;;;;12.00;8.40;;;28.70;54.30;;;;;;1863777;74;21093;-70
2021/11/27 09:43:32;;;;;;;16.77;9.45;;;28.70;54.60;;;;;;1899205;74;21180;-70
2021/11/27 09:46:03;;;;;;;12.50;9.28;;;28.60;55.00;;;;;;1917295;74;21154;-70
2021/11/27 09:48:40;;;;;;;14.40;8.45;;;28.60;55.20;;;;;;1902766;74;21112;-69
2021/11/27 09:51:08;;;;;;;15.43;9.60;;;28.50;55.50;;;;;;1899345;74;21179;-70
2021/11/27 09:53:41;;;;;;;15.32;10.40;;;28.50;55.60;;;;;;1910327;73;21084;-70
2021/11/27 09:56:14;;;;;;;14.00;10.18;;;28.40;55.60;;;;;;1922225;74;21789;-71
2021/11/27 09:58:46;;;;;;;13.53;9.60;;;28.40;55.60;;;;;;1931953;74;21533;-71
2021/11/27 10:01:19;;;;;;;14.18;9.43;;;28.30;55.80;;;;;;1878137;75;21163;-70
2021/11/27 10:03:59;;;;;;;14.58;9.18;;;28.30;56.00;;;;;;1894375;75;21160;-70
2021/11/27 10:06:24;;;;;;;13.88;9.40;;;28.20;55.90;;;;;;1922185;74;21127;-71
2021/11/27 10:08:55;;;;;;;14.35;9.45;;;28.20;56.00;;;;;;1924137;74;21158;-71
2021/11/27 10:11:26;;;;;;;16.27;10.03;;;28.20;56.20;;;;;;1914276;74;21564;-71
2021/11/27 10:13:56;;;;;;;14.73;9.05;;;28.10;56.10;;;;;;1897355;75;21166;-71
2021/11/27 10:16:29;;;;;;;16.15;9.45;;;28.10;56.30;;;;;;1905507;74;21079;-71
2021/11/27 10:19:02;;;;;;;12.53;10.35;;;28.10;56.30;;;;;;1932432;74;21095;-71
2021/11/27 10:21:34;;;;;;;15.95;9.95;;;28.00;56.40;;;;;;1921299;74;21687;-70
2021/11/27 10:24:07;;;;;;;15.68;9.38;;;28.00;56.50;;;;;;1905733;74;21142;-70
2021/11/27 10:26:45;;;;;;;15.58;9.35;;;28.00;56.60;;;;;;1922558;74;21115;-71
2021/11/27 10:29:17;;;;;;;13.75;9.53;;;27.90;56.60;;;;;;1939032;74;21060;-70
2021/11/27 10:31:50;;;;;;;16.07;9.93;;;27.90;56.90;;;;;;1927367;74;21127;-71
2021/11/27 10:34:23;;;;;;;14.20;9.73;;;27.80;57.10;;;;;;1912118;74;21143;-71
2021/11/27 10:36:56;;;;;;;14.03;10.55;;;27.80;57.40;;;;;;1924322;74;21099;-71
2021/11/27 10:39:27;;;;;;;14.07;10.40;;;27.80;57.70;;;;;;1912829;74;21082;-71
2021/11/27 10:42:00;;;;;;;14.58;10.28;;;27.80;57.90;;;;;;1914404;74;21091;-71
2021/11/27 10:44:34;;;;;;;15.28;10.85;;;27.70;58.00;;;;;;1915752;74;21121;-70
2021/11/27 10:47:07;;;;;;;17.80;10.65;;;27.70;58.10;;;;;;1927852;74;22321;-70
2021/11/27 10:49:38;;;;;;;17.20;10.15;;;27.70;58.40;;;;;;1894584;75;21129;-70
2021/11/27 10:52:12;;;;;;;17.55;10.82;;;27.60;58.50;;;;;;1922243;74;21152;-70
2021/11/27 10:54:45;;;;;;;15.28;10.65;;;27.60;58.80;;;;;;1918810;74;21659;-70
2021/11/27 10:57:18;;;;;;;17.50;11.63;;;27.60;59.00;;;;;;1909253;74;21124;-71
2021/11/27 10:59:51;;;;;;;21.17;11.18;;;27.50;59.20;;;;;;1919037;74;22285;-70
2021/11/27 11:02:23;;;;;;;17.70;11.43;;;27.50;59.40;;;;;;1907367;74;21590;-70
2021/11/27 11:04:57;;;;;;;19.00;12.35;;;27.40;59.80;;;;;;1932234;73;21063;-70
2021/11/27 11:07:30;;;;;;;19.98;13.43;;;27.40;60.00;;;;;;1933406;74;21139;-71
2021/11/27 11:10:01;;;;;;;19.70;13.30;;;27.30;60.20;;;;;;1892945;75;21160;-70
2021/11/27 11:12:34;;;;;;;19.67;14.38;;;27.30;60.30;;;;;;1881328;76;21140;-71
2021/11/27 11:15:08;;;;;;;21.23;14.83;;;27.30;60.70;;;;;;1893908;75;21528;-70
2021/11/27 11:17:39;;;;;;;19.00;13.45;;;27.20;60.90;;;;;;1878268;75;21180;-71
2021/11/27 11:20:13;;;;;;;20.80;13.62;;;27.20;61.00;;;;;;1893683;74;21207;-71
2021/11/27 11:22:47;;;;;;;21.82;14.23;;;27.20;61.20;;;;;;1898851;74;22831;-71
2021/11/27 11:25:18;;;;;;;17.75;12.73;;;27.10;61.30;;;;;;1931249;73;21408;-70
2021/11/27 11:27:49;;;;;;;25.62;15.90;;;27.10;61.50;;;;;;1913481;74;21222;-70
2021/11/27 11:30:22;;;;;;;29.37;17.92;;;27.00;61.50;;;;;;1920045;74;21193;-70
2021/11/27 11:32:53;;;;;;;27.37;17.32;;;27.00;61.50;;;;;;1912129;73;21100;-71
2021/11/27 11:35:23;;;;;;;25.30;17.90;;;27.00;61.60;;;;;;1899382;74;21092;-70
2021/11/27 11:37:55;;;;;;;27.52;16.60;;;27.00;61.60;;;;;;1925391;74;21189;-70
2021/11/27 11:40:27;;;;;;;26.10;16.37;;;26.90;61.50;;;;;;1926238;74;21131;-71
2021/11/27 11:42:59;;;;;;;27.27;16.52;;;26.90;61.60;;;;;;1905040;75;21545;-71
2021/11/27 11:45:30;;;;;;;25.27;16.42;;;26.90;61.80;;;;;;1896402;74;21120;-81
2021/11/27 11:48:01;;;;;;;28.55;18.27;;;26.90;61.70;;;;;;1938372;73;21465;-85
2021/11/27 11:50:35;;;;;;;27.00;16.70;;;26.80;61.70;;;;;;1922104;74;21232;-81
2021/11/27 11:53:05;;;;;;;23.45;15.65;;;26.90;61.80;;;;;;1887866;74;21136;-83
2021/11/27 11:55:40;;;;;;;25.05;15.75;;;26.80;61.60;;;;;;1909746;74;21166;-83
2021/11/27 11:58:13;;;;;;;23.75;16.10;;;26.90;61.60;;;;;;1895875;74;21116;-83
2021/11/27 12:00:52;;;;;;;24.52;15.38;;;26.80;61.60;;;;;;1937700;72;21681;-83
2021/11/27 12:03:25;;;;;;;26.15;15.45;;;26.80;61.70;;;;;;1908246;73;21171;-83
2021/11/27 12:06:05;;;;;;;22.20;15.18;;;26.80;61.80;;;;;;1931798;73;21194;-83
2021/11/27 12:08:43;;;;;;;23.10;15.55;;;26.80;62.00;;;;;;1935251;73;21088;-82
2021/11/27 12:11:25;;;;;;;24.60;17.35;;;26.80;62.00;;;;;;1916516;73;21124;-83
2021/11/27 12:13:56;;;;;;;26.12;16.48;;;26.80;62.00;;;;;;1907725;75;21095;-83
2021/11/27 12:16:34;;;;;;;26.25;16.75;;;26.80;62.10;;;;;;1929757;73;21048;-83
2021/11/27 12:19:07;;;;;;;26.90;18.02;;;26.70;62.00;;;;;;1909211;73;21658;-84
2021/11/27 12:21:40;;;;;;;25.85;17.40;;;26.70;62.00;;;;;;1914583;73;21037;-83
2021/11/27 12:24:13;;;;;;;22.13;16.65;;;26.70;62.40;;;;;;1896430;74;21209;-83
2021/11/27 12:26:45;;;;;;;27.42;18.80;;;26.60;62.50;;;;;;1913097;74;21108;-83
2021/11/27 12:29:17;;;;;;;29.18;19.48;;;26.60;63.00;;;;;;1890823;74;21131;-82
2021/11/27 12:31:50;;;;;;;29.92;19.02;;;26.60;63.60;;;;;;1900952;74;21120;-83
2021/11/27 12:34:24;;;;;;;33.25;18.52;;;26.50;64.00;;;;;;1898813;74;21739;-82
2021/11/27 12:36:55;;;;;;;32.78;19.25;;;26.50;64.40;;;;;;1891073;75;21603;-82
2021/11/27 12:39:25;;;;;;;30.97;19.70;;;26.40;64.50;;;;;;1912520;74;21178;-83
2021/11/27 12:41:59;;;;;;;36.40;19.77;;;26.40;64.80;;;;;;1904855;74;21128;-82
2021/11/27 12:44:32;;;;;;;36.15;21.87;;;26.30;65.10;;;;;;1907763;74;21614;-82
2021/11/27 12:47:08;;;;;;;27.98;20.35;;;26.30;65.20;;;;;;1911436;74;21102;-83
2021/11/27 12:49:39;;;;;;;30.10;20.48;;;26.20;65.50;;;;;;1938042;73;21092;-83
2021/11/27 12:52:16;;;;;;;33.50;20.08;;;26.20;66.00;;;;;;1932947;74;21129;-83
2021/11/27 12:54:49;;;;;;;26.87;19.75;;;26.20;66.00;;;;;;1933331;73;21600;-83
2021/11/27 12:57:24;;;;;;;29.30;20.37;;;26.10;66.00;;;;;;1894114;74;21713;-83
2021/11/27 12:59:58;;;;;;;35.78;22.93;;;26.10;66.40;;;;;;1912337;74;21116;-83
2021/11/27 13:02:32;;;;;;;32.58;22.05;;;26.10;66.40;;;;;;1897837;74;21206;-84
2021/11/27 13:05:03;;;;;;;32.10;21.15;;;26.10;66.30;;;;;;1895127;74;21108;-84
2021/11/27 13:07:37;;;;;;;29.10;20.40;;;26.00;66.20;;;;;;1896327;74;21136;-83
2021/11/27 13:10:10;;;;;;;29.70;20.37;;;26.00;66.50;;;;;;1894720;75;21136;-84